createdAt,value
2022-09-21T00:00:53.375Z,4.57
2022-09-21T00:03:21.538Z,4.45
2022-09-21T00:05:49.420Z,3.95
2022-09-21T00:08:18.714Z,4.15
2022-09-21T00:10:50.886Z,3.80
2022-09-21T00:13:19.662Z,4.40
2022-09-21T00:15:47.578Z,4.00
2022-09-21T00:18:15.529Z,4.40
2022-09-21T00:20:44.000Z,4.40
2022-09-21T00:23:11.961Z,4.10
2022-09-21T00:25:41.206Z,4.30
2022-09-21T00:28:09.118Z,3.97
2022-09-21T00:30:38.120Z,4.45
2022-09-21T00:33:06.244Z,4.43
2022-09-21T00:35:34.612Z,4.63
2022-09-21T00:38:03.047Z,4.20
2022-09-21T00:40:31.297Z,4.93
2022-09-21T00:43:14.522Z,5.35
2022-09-21T00:45:43.763Z,5.00
2022-09-21T00:48:11.913Z,4.18
2022-09-21T00:50:45.215Z,4.90
2022-09-21T00:53:13.189Z,5.03
2022-09-21T00:55:44.212Z,4.85
2022-09-21T00:58:18.227Z,4.50
2022-09-21T01:00:46.346Z,4.78
2022-09-21T01:03:14.709Z,5.00
2022-09-21T01:05:42.613Z,4.70
2022-09-21T01:08:13.006Z,4.50
2022-09-21T01:10:51.902Z,4.90
2022-09-21T01:13:32.248Z,4.30
2022-09-21T01:16:22.087Z,4.65
2022-09-21T01:18:57.835Z,4.32
2022-09-21T01:21:27.188Z,3.90
2022-09-21T01:24:13.497Z,4.03
2022-09-21T01:27:00.557Z,4.80
2022-09-21T01:29:33.256Z,4.43
2022-09-21T01:32:05.265Z,4.32
2022-09-21T01:34:36.634Z,4.28
2022-09-21T01:37:06.239Z,4.72
2022-09-21T01:39:35.843Z,4.00
2022-09-21T01:42:07.083Z,3.80
2022-09-21T01:44:37.405Z,4.35
2022-09-21T01:47:09.106Z,3.83
2022-09-21T01:49:38.814Z,4.25
2022-09-21T01:52:10.156Z,4.38
2022-09-21T01:54:41.103Z,4.43
2022-09-21T01:57:13.206Z,3.80
2022-09-21T01:59:47.153Z,4.43
2022-09-21T02:02:17.122Z,4.10
2022-09-21T02:04:45.543Z,3.95
2022-09-21T02:07:13.877Z,3.92
2022-09-21T02:09:42.153Z,3.92
2022-09-21T02:12:10.695Z,4.10
2022-09-21T02:14:39.518Z,3.83
2022-09-21T02:17:17.062Z,4.38
2022-09-21T02:19:47.259Z,4.32
2022-09-21T02:22:17.491Z,4.20
2022-09-21T02:24:47.160Z,3.95
2022-09-21T02:27:20.555Z,4.35
2022-09-21T02:29:51.059Z,3.97
2022-09-21T02:32:25.040Z,3.88
2022-09-21T02:34:55.216Z,4.38
2022-09-21T02:37:25.976Z,4.43
2022-09-21T02:39:59.434Z,4.03
2022-09-21T02:42:29.026Z,4.20
2022-09-21T02:44:58.939Z,3.90
2022-09-21T02:47:31.620Z,4.30
2022-09-21T02:50:03.326Z,4.00
2022-09-21T02:52:31.699Z,4.53
2022-09-21T02:55:00.322Z,3.92
2022-09-21T02:57:28.800Z,3.45
2022-09-21T02:59:57.186Z,3.90
2022-09-21T03:02:25.494Z,4.07
2022-09-21T03:04:55.588Z,3.83
2022-09-21T03:07:23.836Z,3.45
2022-09-21T03:09:52.105Z,3.53
2022-09-21T03:12:20.421Z,3.47
2022-09-21T03:14:49.714Z,4.25
2022-09-21T03:17:17.971Z,4.05
2022-09-21T03:19:46.253Z,3.85
2022-09-21T03:22:17.045Z,4.50
2022-09-21T03:24:48.179Z,3.38
2022-09-21T03:27:17.062Z,3.70
2022-09-21T03:29:45.506Z,3.58
2022-09-21T03:32:14.332Z,3.80
2022-09-21T03:34:42.756Z,3.92
2022-09-21T03:37:11.199Z,3.85
2022-09-21T03:39:40.833Z,4.47
2022-09-21T03:42:09.908Z,3.53
2022-09-21T03:44:38.415Z,3.75
2022-09-21T03:47:07.426Z,3.90
2022-09-21T03:49:35.894Z,3.83
2022-09-21T03:52:04.464Z,4.15
2022-09-21T03:54:32.779Z,3.63
2022-09-21T03:57:02.544Z,4.15
2022-09-21T03:59:30.834Z,3.47
2022-09-21T04:01:59.093Z,3.50
2022-09-21T04:04:27.345Z,3.92
2022-09-21T04:06:55.615Z,4.22
2022-09-21T04:09:23.859Z,3.58
2022-09-21T04:11:54.056Z,3.45
2022-09-21T04:14:24.138Z,3.83
2022-09-21T04:16:52.433Z,3.85
2022-09-21T04:19:22.295Z,4.22
2022-09-21T04:21:51.379Z,4.20
2022-09-21T04:24:19.739Z,2.92
2022-09-21T04:26:48.066Z,3.30
2022-09-21T04:29:16.662Z,3.45
2022-09-21T04:31:46.261Z,3.40
2022-09-21T04:34:15.048Z,3.58
2022-09-21T04:36:43.568Z,3.75
2022-09-21T04:39:11.838Z,3.20
2022-09-21T04:41:40.113Z,2.70
2022-09-21T04:44:08.420Z,3.28
2022-09-21T04:46:36.722Z,3.20
2022-09-21T04:49:06.358Z,3.30
2022-09-21T04:51:34.628Z,3.60
2022-09-21T04:54:03.064Z,3.78
2022-09-21T04:56:31.371Z,3.67
2022-09-21T04:58:59.688Z,3.75
2022-09-21T05:01:28.273Z,3.45
2022-09-21T05:03:58.619Z,3.65
2022-09-21T05:06:28.375Z,4.13
2022-09-21T05:09:28.921Z,4.13
2022-09-21T05:11:57.199Z,3.65
2022-09-21T05:14:25.780Z,4.07
2022-09-21T05:16:54.117Z,4.15
2022-09-21T05:19:22.767Z,4.28
2022-09-21T05:21:52.391Z,3.85
2022-09-21T05:24:20.654Z,3.97
2022-09-21T05:26:48.944Z,4.32
2022-09-21T05:29:17.436Z,4.00
2022-09-21T05:31:47.837Z,4.35
2022-09-21T05:34:21.829Z,3.60
2022-09-21T05:36:53.603Z,3.78
2022-09-21T05:39:23.592Z,3.70
2022-09-21T05:41:52.222Z,3.50
2022-09-21T05:44:21.508Z,3.40
2022-09-21T05:46:56.191Z,3.85
2022-09-21T05:49:30.091Z,3.38
2022-09-21T05:52:03.903Z,3.00
2022-09-21T05:54:39.566Z,3.40
2022-09-21T05:57:11.723Z,3.97
2022-09-21T05:59:52.290Z,3.88
2022-09-21T06:02:24.879Z,3.72
2022-09-21T06:04:54.102Z,3.60
2022-09-21T06:07:22.389Z,3.60
2022-09-21T06:09:52.087Z,4.00
2022-09-21T06:12:20.380Z,3.60
2022-09-21T06:14:48.736Z,3.72
2022-09-21T06:17:17.037Z,3.80
2022-09-21T06:19:45.805Z,3.40
2022-09-21T06:22:14.089Z,3.40
2022-09-21T06:24:42.411Z,3.45
2022-09-21T06:27:12.027Z,3.67
2022-09-21T06:29:40.307Z,3.53
2022-09-21T06:32:08.651Z,3.70
2022-09-21T06:34:37.868Z,3.63
2022-09-21T06:37:06.227Z,4.20
2022-09-21T06:39:34.502Z,3.95
2022-09-21T06:42:02.770Z,4.38
2022-09-21T06:44:32.365Z,3.97
2022-09-21T06:47:00.705Z,4.20
2022-09-21T06:49:29.193Z,4.22
2022-09-21T06:51:58.155Z,4.10
2022-09-21T06:54:27.002Z,4.15
2022-09-21T06:56:59.352Z,4.75
2022-09-21T06:59:28.626Z,4.15
2022-09-21T07:01:58.581Z,4.68
2022-09-21T07:04:28.386Z,4.38
2022-09-21T07:06:57.526Z,5.32
2022-09-21T07:12:16.076Z,5.18
2022-09-21T07:14:46.144Z,5.20
2022-09-21T07:17:16.004Z,5.10
2022-09-21T07:19:44.367Z,4.90
2022-09-21T07:22:12.647Z,5.88
2022-09-21T07:24:40.909Z,5.28
2022-09-21T07:27:09.193Z,4.70
2022-09-21T07:29:37.563Z,5.35
2022-09-21T07:32:05.979Z,4.80
2022-09-21T07:34:38.071Z,4.68
2022-09-21T07:37:06.444Z,4.72
2022-09-21T07:39:35.493Z,5.05
2022-09-21T07:42:04.102Z,5.38
2022-09-21T07:44:32.452Z,4.65
2022-09-21T07:47:02.259Z,4.22
2022-09-21T07:49:30.593Z,3.70
2022-09-21T07:52:03.936Z,3.30
2022-09-21T07:54:34.356Z,3.80
2022-09-21T07:57:20.187Z,3.70
2022-09-21T07:59:48.498Z,3.22
2022-09-21T08:02:16.905Z,3.33
2022-09-21T08:04:45.266Z,4.63
2022-09-21T08:07:14.918Z,3.58
2022-09-21T08:09:43.269Z,3.75
2022-09-21T08:12:12.061Z,3.17
2022-09-21T08:14:40.535Z,2.92
2022-09-21T08:17:08.971Z,3.35
2022-09-21T08:19:37.228Z,3.47
2022-09-21T08:22:05.608Z,2.67
2022-09-21T08:24:35.414Z,3.20
2022-09-21T08:27:03.713Z,2.83
2022-09-21T08:29:31.967Z,2.92
2022-09-21T08:32:00.269Z,3.13
2022-09-21T08:34:28.846Z,3.22
2022-09-21T08:36:57.102Z,4.05
2022-09-21T08:39:25.380Z,3.50
2022-09-21T08:41:57.869Z,2.63
2022-09-21T08:44:28.300Z,2.58
2022-09-21T08:47:02.464Z,2.35
2022-09-21T08:49:31.266Z,11.48
2022-09-21T08:52:02.287Z,4.78
2022-09-21T08:54:32.611Z,2.88
2022-09-21T08:57:06.363Z,3.05
2022-09-21T08:59:35.399Z,2.78
2022-09-21T09:02:09.125Z,2.78
2022-09-21T09:04:46.708Z,3.00
2022-09-21T09:07:21.729Z,2.58
2022-09-21T09:09:56.409Z,2.80
2022-09-21T09:12:34.915Z,2.70
2022-09-21T09:15:12.107Z,2.83
2022-09-21T09:17:51.363Z,2.30
2022-09-21T09:20:21.210Z,2.40
2022-09-21T09:22:51.806Z,2.70
2022-09-21T09:25:22.551Z,3.20
2022-09-21T09:27:54.144Z,2.50
2022-09-21T09:30:24.620Z,2.05
2022-09-21T09:32:55.836Z,2.20
2022-09-21T09:35:27.212Z,1.80
2022-09-21T09:37:58.061Z,2.00
2022-09-21T09:40:32.138Z,2.30
2022-09-21T09:43:06.728Z,1.60
2022-09-21T09:45:52.923Z,1.73
2022-09-21T09:48:27.367Z,1.50
2022-09-21T09:50:55.641Z,1.73
2022-09-21T09:53:24.907Z,1.52
2022-09-21T09:55:54.304Z,1.83
2022-09-21T09:58:24.959Z,1.52
2022-09-21T10:00:54.569Z,1.38
2022-09-21T10:03:24.132Z,1.77
2022-09-21T10:05:53.014Z,1.60
2022-09-21T10:08:32.031Z,1.83
2022-09-21T10:11:00.401Z,1.65
2022-09-21T10:13:30.959Z,1.90
2022-09-21T10:16:00.561Z,2.10
2022-09-21T10:18:31.639Z,1.00
2022-09-21T10:21:01.732Z,1.33
2022-09-21T10:23:31.010Z,1.50
2022-09-21T10:26:01.415Z,1.50
2022-09-21T10:28:31.182Z,1.30
2022-09-21T10:31:19.167Z,1.05
2022-09-21T10:33:52.043Z,1.40
2022-09-21T10:36:28.008Z,1.35
2022-09-21T10:38:56.284Z,1.02
2022-09-21T10:41:24.811Z,7.80
2022-09-21T10:43:54.670Z,1.20
2022-09-21T10:46:34.829Z,1.30
2022-09-21T10:49:03.964Z,1.00
2022-09-21T10:51:34.731Z,1.20
2022-09-21T10:54:03.266Z,1.08
2022-09-21T10:56:31.535Z,5.72
2022-09-21T10:59:14.891Z,0.95
2022-09-21T11:01:45.765Z,2.00
2022-09-21T11:04:17.508Z,1.00
2022-09-21T11:06:46.516Z,0.90
2022-09-21T11:09:16.704Z,1.00
2022-09-21T11:11:48.195Z,1.02
2022-09-21T11:14:21.136Z,0.88
2022-09-21T11:16:53.143Z,0.82
2022-09-21T11:19:23.700Z,1.15
2022-09-21T11:21:54.262Z,1.00
2022-09-21T11:24:25.073Z,1.00
2022-09-21T11:26:55.807Z,1.23
2022-09-21T11:32:16.206Z,1.05
2022-09-21T11:34:50.924Z,1.15
2022-09-21T11:37:24.174Z,0.80
2022-09-21T11:39:57.743Z,1.27
2022-09-21T11:42:32.674Z,1.10
2022-09-21T11:45:03.249Z,1.23
2022-09-21T11:47:38.828Z,0.90
2022-09-21T11:50:29.902Z,0.98
2022-09-21T11:53:05.309Z,1.05
2022-09-21T11:55:44.416Z,0.98
2022-09-21T11:58:18.580Z,0.90
2022-09-21T12:00:57.513Z,1.05
2022-09-21T12:03:36.432Z,0.88
2022-09-21T12:06:08.070Z,0.75
2022-09-21T12:08:48.132Z,0.80
2022-09-21T12:11:21.929Z,1.15
2022-09-21T12:13:53.639Z,1.00
2022-09-21T12:16:26.419Z,0.90
2022-09-21T12:18:58.275Z,0.90
2022-09-21T12:21:28.286Z,0.77
2022-09-21T12:23:57.880Z,0.90
2022-09-21T12:26:27.929Z,0.88
2022-09-21T12:29:00.674Z,0.60
2022-09-21T12:31:32.285Z,0.40
2022-09-21T12:34:03.214Z,0.70
2022-09-21T12:36:38.274Z,0.75
2022-09-21T12:39:12.619Z,0.70
2022-09-21T12:41:44.614Z,0.95
2022-09-21T12:44:18.376Z,0.70
2022-09-21T12:46:52.575Z,0.60
2022-09-21T12:49:23.147Z,0.50
2022-09-21T12:51:54.443Z,0.73
2022-09-21T12:54:28.111Z,1.10
2022-09-21T12:57:03.731Z,0.60
2022-09-21T12:59:39.554Z,0.70
2022-09-21T13:02:15.211Z,0.70
2022-09-21T13:04:50.311Z,0.82
2022-09-21T13:07:30.065Z,0.60
2022-09-21T13:09:59.343Z,0.70
2022-09-21T13:12:32.861Z,0.63
2022-09-21T13:15:04.707Z,0.55
2022-09-21T13:17:35.765Z,0.63
2022-09-21T13:20:06.258Z,0.52
2022-09-21T13:22:35.990Z,0.80
2022-09-21T13:25:06.696Z,0.70
2022-09-21T13:27:54.798Z,0.70
2022-09-21T13:30:32.616Z,0.60
2022-09-21T13:33:02.664Z,0.50
2022-09-21T13:35:54.168Z,0.70
2022-09-21T13:38:24.867Z,0.70
2022-09-21T13:40:58.351Z,0.68
2022-09-21T13:43:58.542Z,0.70
2022-09-21T13:46:50.292Z,0.70
2022-09-21T13:49:23.964Z,0.70
2022-09-21T13:51:53.486Z,0.60
2022-09-21T13:54:23.808Z,0.55
2022-09-21T13:57:00.125Z,0.57
2022-09-21T13:59:29.130Z,0.50
2022-09-21T14:01:58.067Z,0.70
2022-09-21T14:04:29.506Z,0.77
2022-09-21T14:06:58.363Z,0.68
2022-09-21T14:09:28.598Z,1.00
2022-09-21T14:11:58.388Z,0.70
2022-09-21T14:14:29.519Z,0.75
2022-09-21T14:16:59.132Z,0.70
2022-09-21T14:19:46.043Z,0.70
2022-09-21T14:22:32.819Z,0.90
2022-09-21T14:25:19.903Z,0.80
2022-09-21T14:27:52.290Z,0.70
2022-09-21T14:30:22.760Z,0.95
2022-09-21T14:32:54.462Z,0.88
2022-09-21T14:35:24.640Z,0.70
2022-09-21T14:37:56.038Z,0.60
2022-09-21T14:40:25.642Z,0.60
2022-09-21T14:42:56.436Z,0.70
2022-09-21T14:45:27.807Z,0.70
2022-09-21T14:48:02.587Z,0.77
2022-09-21T14:50:33.118Z,0.70
2022-09-21T14:53:08.439Z,0.50
2022-09-21T14:55:46.050Z,0.70
2022-09-21T14:58:27.669Z,0.60
2022-09-21T15:00:59.438Z,0.70
2022-09-21T15:03:44.563Z,0.55
2022-09-21T15:06:35.168Z,0.80
2022-09-21T15:09:32.769Z,0.80
2022-09-21T15:12:03.332Z,0.80
2022-09-21T15:14:35.923Z,0.70
2022-09-21T15:17:19.878Z,0.60
2022-09-21T15:19:49.984Z,0.70
2022-09-21T15:22:19.288Z,0.50
2022-09-21T15:24:51.920Z,0.70
2022-09-21T15:27:20.884Z,0.80
2022-09-21T15:29:53.078Z,0.60
2022-09-21T15:32:25.980Z,0.40
2022-09-21T15:35:01.277Z,0.60
2022-09-21T15:37:30.406Z,0.80
2022-09-21T15:40:02.312Z,0.50
2022-09-21T15:42:30.926Z,0.70
2022-09-21T15:45:15.179Z,0.60
2022-09-21T15:47:45.155Z,0.60
2022-09-21T15:50:14.620Z,0.60
2022-09-21T15:52:44.595Z,0.50
2022-09-21T15:55:13.585Z,0.60
2022-09-21T15:57:43.208Z,0.60
2022-09-21T16:00:21.348Z,0.60
2022-09-21T16:03:07.683Z,0.50
2022-09-21T16:05:43.944Z,0.55
2022-09-21T16:08:22.290Z,0.70
2022-09-21T16:10:51.338Z,0.40
2022-09-21T16:13:38.396Z,0.50
2022-09-21T16:16:08.985Z,0.47
2022-09-21T16:18:44.481Z,0.70
2022-09-21T16:21:23.232Z,0.52
2022-09-21T16:23:52.493Z,0.60
2022-09-21T16:26:22.009Z,1.02
2022-09-21T16:28:51.002Z,0.80
2022-09-21T16:31:31.977Z,0.60
2022-09-21T16:34:07.922Z,0.57
2022-09-21T16:36:45.509Z,0.75
2022-09-21T16:39:15.924Z,0.50
2022-09-21T16:41:47.210Z,0.70
2022-09-21T16:44:19.648Z,0.73
2022-09-21T16:46:54.969Z,0.77
2022-09-21T16:49:28.013Z,0.70
2022-09-21T16:51:59.131Z,0.80
2022-09-21T16:54:27.772Z,0.77
2022-09-21T16:56:57.284Z,0.82
2022-09-21T16:59:26.058Z,1.10
2022-09-21T17:01:57.065Z,1.00
2022-09-21T17:04:26.514Z,1.15
2022-09-21T17:06:55.414Z,1.20
2022-09-21T17:09:29.253Z,1.33
2022-09-21T17:12:01.512Z,1.20
2022-09-21T17:14:34.958Z,1.10
2022-09-21T17:17:08.201Z,1.00
2022-09-21T17:19:36.981Z,1.58
2022-09-21T17:22:06.796Z,1.52
2022-09-21T17:24:50.254Z,1.70
2022-09-21T17:27:19.933Z,1.25
2022-09-21T17:29:49.413Z,1.33
2022-09-21T17:32:21.132Z,1.00
2022-09-21T17:34:53.395Z,1.30
2022-09-21T17:37:21.934Z,1.13
2022-09-21T17:39:50.199Z,0.98
2022-09-21T17:42:19.587Z,0.88
2022-09-21T17:44:54.709Z,1.30
2022-09-21T17:47:27.937Z,1.50
2022-09-21T17:49:56.912Z,1.10
2022-09-21T17:52:43.194Z,0.98
2022-09-21T17:55:13.244Z,1.45
2022-09-21T17:57:59.299Z,1.13
2022-09-21T18:00:31.713Z,1.30
2022-09-21T18:03:01.754Z,1.50
2022-09-21T18:05:31.020Z,1.60
2022-09-21T18:07:59.952Z,1.20
2022-09-21T18:10:30.331Z,1.45
2022-09-21T18:13:11.302Z,1.60
2022-09-21T18:15:44.140Z,1.38
2022-09-21T18:18:17.684Z,1.08
2022-09-21T18:20:49.699Z,1.00
2022-09-21T18:23:20.965Z,1.35
2022-09-21T18:25:53.180Z,1.15
2022-09-21T18:28:24.504Z,1.40
2022-09-21T18:30:57.329Z,1.10
2022-09-21T18:33:31.032Z,1.10
2022-09-21T18:36:05.423Z,0.95
2022-09-21T18:38:37.100Z,1.35
2022-09-21T18:41:12.132Z,1.30
2022-09-21T18:43:46.826Z,1.65
2022-09-21T18:46:18.632Z,1.70
2022-09-21T18:48:52.963Z,1.35
2022-09-21T18:51:24.400Z,1.40
2022-09-21T18:53:55.723Z,1.50
2022-09-21T18:56:24.416Z,1.50
2022-09-21T18:58:53.136Z,1.70
2022-09-21T19:01:23.442Z,1.40
2022-09-21T19:03:53.620Z,1.60
2022-09-21T19:06:27.345Z,1.70
2022-09-21T19:09:00.803Z,1.42
2022-09-21T19:11:34.635Z,1.65
2022-09-21T19:14:08.306Z,1.55
2022-09-21T19:16:39.837Z,2.28
2022-09-21T19:19:16.396Z,1.83
2022-09-21T19:21:47.464Z,1.95
2022-09-21T19:24:20.016Z,2.08
2022-09-21T19:26:51.336Z,2.30
2022-09-21T19:29:28.020Z,1.92
2022-09-21T19:31:56.659Z,2.00
2022-09-21T19:34:28.018Z,1.60
2022-09-21T19:36:57.175Z,1.55
2022-09-21T19:39:25.696Z,1.70
2022-09-21T19:42:00.736Z,1.83
2022-09-21T19:44:39.695Z,1.80
2022-09-21T19:47:14.139Z,1.52
2022-09-21T19:49:48.732Z,2.30
2022-09-21T19:52:18.375Z,2.08
2022-09-21T19:55:04.614Z,1.48
2022-09-21T19:57:50.987Z,1.88
2022-09-21T20:00:19.776Z,1.50
2022-09-21T20:02:54.211Z,1.90
2022-09-21T20:05:28.302Z,1.55
2022-09-21T20:07:59.841Z,1.50
2022-09-21T20:10:38.835Z,1.67
2022-09-21T20:13:12.534Z,1.73
2022-09-21T20:15:42.847Z,1.92
2022-09-21T20:18:13.275Z,1.58
2022-09-21T20:20:43.111Z,1.60
2022-09-21T20:23:12.456Z,1.45
2022-09-21T20:25:46.130Z,1.75
2022-09-21T20:28:14.617Z,1.65
2022-09-21T20:30:43.019Z,1.77
2022-09-21T20:33:14.659Z,1.75
2022-09-21T20:35:44.942Z,2.13
2022-09-21T20:38:14.772Z,2.70
2022-09-21T20:40:44.258Z,2.10
2022-09-21T20:43:14.073Z,2.75
2022-09-21T20:45:50.177Z,2.30
2022-09-21T20:48:19.348Z,1.98
2022-09-21T20:50:50.359Z,1.95
2022-09-21T20:53:18.994Z,1.90
2022-09-21T20:55:54.343Z,2.13
2022-09-21T20:58:22.938Z,2.10
2022-09-21T21:00:54.077Z,2.28
2022-09-21T21:03:24.845Z,2.45
2022-09-21T21:05:54.528Z,2.25
2022-09-21T21:08:22.808Z,2.50
2022-09-21T21:10:51.486Z,2.45
2022-09-21T21:13:20.160Z,2.38
2022-09-21T21:15:54.148Z,2.80
2022-09-21T21:18:22.454Z,3.00
2022-09-21T21:20:52.198Z,2.50
2022-09-21T21:23:21.798Z,3.00
2022-09-21T21:25:50.066Z,3.47
2022-09-21T21:28:18.312Z,3.05
2022-09-21T21:30:46.566Z,3.40
2022-09-21T21:33:14.832Z,3.15
2022-09-21T21:35:43.093Z,3.28
2022-09-21T21:38:13.362Z,3.30
2022-09-21T21:40:43.024Z,3.20
2022-09-21T21:43:12.134Z,3.28
2022-09-21T21:45:40.555Z,3.05
2022-09-21T21:48:08.993Z,3.13
2022-09-21T21:50:37.434Z,3.08
2022-09-21T21:53:06.692Z,3.42
2022-09-21T21:55:34.965Z,2.88
2022-09-21T21:58:04.581Z,2.90
2022-09-21T22:00:32.933Z,2.72
2022-09-21T22:03:02.439Z,2.88
2022-09-21T22:05:30.683Z,3.17
2022-09-21T22:07:58.980Z,2.95
2022-09-21T22:10:28.089Z,3.45
2022-09-21T22:12:58.123Z,3.08
2022-09-21T22:15:27.748Z,3.00
2022-09-21T22:17:56.036Z,3.22
2022-09-21T22:20:24.295Z,3.28
2022-09-21T22:22:52.794Z,3.10
2022-09-21T22:25:21.070Z,3.53
2022-09-21T22:27:49.337Z,3.15
2022-09-21T22:30:17.675Z,3.72
2022-09-21T22:32:47.515Z,3.75
2022-09-21T22:35:16.002Z,3.55
2022-09-21T22:37:44.268Z,3.65
2022-09-21T22:40:13.941Z,3.83
2022-09-21T22:42:42.262Z,3.75
2022-09-21T22:45:10.791Z,3.50
2022-09-21T22:47:39.088Z,3.40
2022-09-21T22:50:09.603Z,3.53
2022-09-21T22:52:37.884Z,3.97
2022-09-21T22:55:06.505Z,3.75
2022-09-21T22:57:35.776Z,3.90
2022-09-21T23:00:04.176Z,3.60
2022-09-21T23:02:32.563Z,3.67
2022-09-21T23:05:00.932Z,4.10
2022-09-21T23:07:30.597Z,3.63
2022-09-21T23:09:58.871Z,3.67
2022-09-21T23:12:27.126Z,3.55
2022-09-21T23:14:55.367Z,3.58
2022-09-21T23:17:24.196Z,3.42
2022-09-21T23:19:52.453Z,4.30
2022-09-21T23:22:20.760Z,3.25
2022-09-21T23:24:50.355Z,3.92
2022-09-21T23:27:18.616Z,3.50
2022-09-21T23:29:46.862Z,3.47
2022-09-21T23:32:15.114Z,3.60
2022-09-21T23:34:43.372Z,3.75
2022-09-21T23:37:11.628Z,3.33
2022-09-21T23:39:40.186Z,4.00
2022-09-21T23:42:09.794Z,3.72
2022-09-21T23:44:38.035Z,4.20
2022-09-21T23:47:06.377Z,3.63
2022-09-21T23:49:34.628Z,3.83
2022-09-21T23:52:03.401Z,4.00
2022-09-21T23:54:31.638Z,4.18
2022-09-21T23:56:59.921Z,3.55
2022-09-21T23:59:29.509Z,4.05
